Time;durP1;ratioP1;P1;durP2;ratioP2;P2;SDS_P1;SDS_P2;PMS_P1;PMS_P2;Temp;Humidity;BMP_temperature;BMP_pressure;BME280_temperature;BME280_humidity;BME280_pressure;Samples;Min_cycle;Max_cycle;Signal;HPM_P1;HPM_P2
2023/12/12 00:01:11;;;;;;;26.58;4.20;;;;;;;10.08;82.69;99413.22;6060688;23;20101;-87
2023/12/12 00:03:38;;;;;;;22.67;4.20;;;;;;;10.05;83.09;99413.50;6062389;23;20022;-87
2023/12/12 00:06:06;;;;;;;18.02;3.90;;;;;;;10.02;83.12;99415.59;6085282;23;20525;-87
2023/12/12 00:08:33;;;;;;;19.30;3.58;;;;;;;9.96;83.30;99409.03;6036526;23;20022;-87
2023/12/12 00:11:00;;;;;;;25.33;5.43;;;;;;;9.95;83.12;99416.16;6037408;23;20022;-87
2023/12/12 00:13:26;;;;;;;18.58;3.47;;;;;;;9.93;83.52;99407.50;6085198;23;20027;-87
2023/12/12 00:15:53;;;;;;;26.35;3.10;;;;;;;9.90;83.65;99405.13;6133954;23;20026;-87
2023/12/12 00:18:21;;;;;;;18.65;3.92;;;;;;;9.85;83.78;99406.56;6086522;23;20022;-88
2023/12/12 00:20:48;;;;;;;17.70;2.78;;;;;;;9.80;83.65;99404.31;6108728;23;20033;-87
2023/12/12 00:23:14;;;;;;;15.20;2.92;;;;;;;9.79;83.63;99415.88;6061753;23;20102;-87
2023/12/12 00:25:41;;;;;;;15.25;3.38;;;;;;;9.77;83.59;99416.03;6085183;23;20010;-87
2023/12/12 00:28:08;;;;;;;25.08;5.05;;;;;;;9.72;83.76;99426.22;6061891;23;20018;-87
2023/12/12 00:30:35;;;;;;;12.57;2.53;;;;;;;9.70;83.87;99422.06;6084725;23;20026;-87
2023/12/12 00:33:02;;;;;;;19.33;3.00;;;;;;;9.67;84.08;99425.00;6062342;23;20089;-87
2023/12/12 00:35:29;;;;;;;10.98;3.40;;;;;;;9.66;84.21;99418.81;6084610;23;20042;-87
2023/12/12 00:37:56;;;;;;;16.10;4.25;;;;;;;9.64;84.24;99406.69;6085814;23;20093;-88
2023/12/12 00:40:22;;;;;;;15.32;3.17;;;;;;;9.64;84.47;99404.91;6060821;23;20713;-88
2023/12/12 00:42:49;;;;;;;15.70;2.55;;;;;;;9.63;84.79;99410.31;6037170;23;20350;-87
2023/12/12 00:45:17;;;;;;;18.70;2.80;;;;;;;9.62;84.89;99412.16;6110038;23;20774;-87
2023/12/12 00:47:44;;;;;;;15.20;2.88;;;;;;;9.61;85.01;99406.97;6085827;23;20033;-87
2023/12/12 00:50:11;;;;;;;18.52;3.30;;;;;;;9.60;85.00;99408.78;6060284;23;20026;-87
2023/12/12 00:52:39;;;;;;;22.65;2.85;;;;;;;9.61;84.99;99410.44;6038668;23;20025;-87
2023/12/12 00:55:07;;;;;;;12.18;3.58;;;;;;;9.56;85.03;99410.88;6060967;23;20041;-87
2023/12/12 00:57:34;;;;;;;17.70;3.10;;;;;;;9.53;85.18;99410.31;6085560;23;20022;-87
2023/12/12 01:00:01;;;;;;;17.92;4.28;;;;;;;9.50;84.98;99413.25;6036236;23;20097;-87
2023/12/12 01:02:28;;;;;;;17.17;3.40;;;;;;;9.47;84.73;99408.25;6109319;23;20022;-87
2023/12/12 01:04:54;;;;;;;19.10;2.92;;;;;;;9.46;84.81;99409.19;6084510;23;20547;-87
2023/12/12 01:07:21;;;;;;;16.55;3.13;;;;;;;9.46;84.81;99411.84;6085581;23;20026;-87
2023/12/12 01:09:48;;;;;;;12.00;2.63;;;;;;;9.42;84.66;99408.66;6037613;23;20534;-87
2023/12/12 01:12:15;;;;;;;18.10;2.90;;;;;;;9.42;84.70;99413.13;6084612;23;20018;-87
2023/12/12 01:14:42;;;;;;;18.02;3.80;;;;;;;9.41;84.85;99412.25;6085394;23;20077;-87
2023/12/12 01:17:09;;;;;;;18.13;3.10;;;;;;;9.42;84.80;99418.41;6061814;23;20030;-87
2023/12/12 01:19:35;;;;;;;13.60;3.00;;;;;;;9.39;84.59;99411.59;6060491;23;20081;-87
2023/12/12 01:22:02;;;;;;;26.88;3.83;;;;;;;9.38;84.85;99412.53;6085151;23;20693;-87
2023/12/12 01:24:30;;;;;;;18.45;2.70;;;;;;;9.30;84.96;99399.97;6109930;23;20476;-87
2023/12/12 01:26:56;;;;;;;20.73;3.28;;;;;;;9.29;84.89;99408.09;6060890;23;20070;-87
2023/12/12 01:29:23;;;;;;;16.75;3.38;;;;;;;9.26;84.82;99403.91;6108525;23;20017;-87
2023/12/12 01:31:50;;;;;;;16.88;3.25;;;;;;;9.24;84.92;99407.66;6109109;23;20358;-87
2023/12/12 01:34:17;;;;;;;16.10;3.20;;;;;;;9.23;84.58;99408.63;6061523;23;20410;-87
2023/12/12 01:36:44;;;;;;;21.55;3.88;;;;;;;9.20;84.55;99403.59;6036920;23;20042;-87
2023/12/12 01:39:11;;;;;;;18.17;3.38;;;;;;;9.16;84.72;99399.53;6084280;23;20018;-87
2023/12/12 01:41:37;;;;;;;20.20;4.50;;;;;;;9.14;84.85;99405.00;6084417;23;20065;-86
2023/12/12 01:44:04;;;;;;;14.30;3.10;;;;;;;9.11;84.86;99403.47;6085211;23;20022;-87
2023/12/12 01:46:32;;;;;;;11.98;2.97;;;;;;;9.11;84.80;99395.50;6084931;23;20093;-87
2023/12/12 01:48:59;;;;;;;18.27;3.60;;;;;;;9.07;84.69;99398.56;6036505;23;20034;-87
2023/12/12 01:51:26;;;;;;;18.95;3.35;;;;;;;9.05;84.94;99395.22;6059850;23;20097;-87
2023/12/12 01:53:53;;;;;;;13.38;2.55;;;;;;;9.03;84.72;99402.44;6060310;23;20037;-87
2023/12/12 01:56:20;;;;;;;18.08;3.67;;;;;;;9.01;84.91;99397.31;6060713;23;20102;-87
2023/12/12 01:58:49;;;;;;;16.83;3.95;;;;;;;9.00;85.06;99392.13;6037278;23;20018;-88
2023/12/12 02:01:18;;;;;;;19.52;3.53;;;;;;;9.00;85.10;99395.63;6060429;23;20026;-87
2023/12/12 02:03:46;;;;;;;16.63;3.45;;;;;;;9.01;85.30;99388.53;6084422;23;20026;-87
2023/12/12 02:06:21;;;;;;;19.83;3.47;;;;;;;8.98;85.27;99396.72;6036732;23;20030;-87
2023/12/12 02:08:52;;;;;;;17.52;2.97;;;;;;;8.95;85.47;99400.47;6106143;23;20053;-87
2023/12/12 02:11:19;;;;;;;7.43;2.58;;;;;;;8.97;85.57;99395.06;6108564;23;20403;-87
2023/12/12 02:13:46;;;;;;;14.07;2.80;;;;;;;8.97;85.91;99398.53;6109107;23;20073;-88
2023/12/12 02:16:13;;;;;;;14.75;3.15;;;;;;;8.99;85.97;99393.13;6085230;23;20397;-89
2023/12/12 02:18:40;;;;;;;21.52;2.72;;;;;;;8.97;86.38;99392.41;6059996;23;20093;-88
2023/12/12 02:21:07;;;;;;;18.70;3.10;;;;;;;8.94;86.60;99398.81;6108228;23;20085;-88
2023/12/12 02:23:34;;;;;;;17.95;3.05;;;;;;;8.90;86.19;99402.69;6109423;23;20025;-88
2023/12/12 02:26:02;;;;;;;24.83;3.25;;;;;;;8.90;86.54;99389.47;6108826;23;20458;-87
2023/12/12 02:28:29;;;;;;;15.88;2.90;;;;;;;8.94;87.49;99398.00;6036292;23;20034;-87
2023/12/12 02:30:58;;;;;;;17.70;3.13;;;;;;;8.90;87.13;99384.16;6083531;23;20037;-87
2023/12/12 02:33:25;;;;;;;15.43;2.97;;;;;;;8.84;87.65;99377.63;6037694;23;20350;-88
2023/12/12 02:35:52;;;;;;;13.30;3.20;;;;;;;8.85;87.33;99374.00;6108381;23;20045;-88
2023/12/12 02:38:19;;;;;;;18.17;3.00;;;;;;;8.86;87.45;99374.84;6109082;23;20459;-88
2023/12/12 02:40:46;;;;;;;15.43;2.88;;;;;;;8.84;87.39;99390.03;6084386;23;20073;-89
2023/12/12 02:43:12;;;;;;;19.40;3.30;;;;;;;8.84;87.76;99382.06;6084298;23;20014;-88
2023/12/12 02:45:39;;;;;;;16.75;3.25;;;;;;;8.82;87.98;99389.31;6036453;23;20046;-88
2023/12/12 02:48:06;;;;;;;14.98;3.03;;;;;;;8.78;87.72;99382.63;6085595;23;20019;-89
2023/12/12 02:50:33;;;;;;;11.27;2.78;;;;;;;8.73;87.83;99377.75;6058991;23;20042;-89
2023/12/12 02:53:00;;;;;;;14.13;2.83;;;;;;;8.71;88.08;99378.84;6084223;23;20117;-88
2023/12/12 02:55:27;;;;;;;10.32;2.30;;;;;;;8.73;87.92;99379.53;6037958;23;20721;-88
2023/12/12 02:57:54;;;;;;;18.92;3.42;;;;;;;8.73;88.06;99384.81;6083702;23;20078;-88
2023/12/12 03:00:20;;;;;;;12.13;2.67;;;;;;;8.77;88.03;99391.53;6107746;23;20022;-88
2023/12/12 03:02:47;;;;;;;13.35;2.85;;;;;;;8.79;88.13;99381.66;6083703;23;20030;-88
2023/12/12 03:05:14;;;;;;;18.25;3.10;;;;;;;8.80;88.53;99383.31;6109220;23;20355;-88
2023/12/12 03:07:41;;;;;;;11.40;2.65;;;;;;;8.78;88.77;99380.81;6084474;23;20010;-88
2023/12/12 03:10:09;;;;;;;21.50;2.95;;;;;;;8.80;89.23;99384.16;6084062;23;20022;-88
2023/12/12 03:12:36;;;;;;;14.35;2.10;;;;;;;8.80;89.27;99389.47;6060729;23;20061;-88
2023/12/12 03:15:03;;;;;;;13.77;2.60;;;;;;;8.80;89.56;99368.28;6060037;23;20026;-88
2023/12/12 03:17:30;;;;;;;16.15;2.58;;;;;;;8.76;89.78;99368.69;6084776;23;20023;-89
2023/12/12 03:19:57;;;;;;;18.15;3.03;;;;;;;8.77;88.91;99375.66;6082767;23;20476;-88
2023/12/12 03:22:24;;;;;;;13.20;2.72;;;;;;;8.75;88.08;99367.84;6060362;23;20118;-88
2023/12/12 03:24:51;;;;;;;13.23;2.83;;;;;;;8.74;88.46;99360.03;6060470;23;20022;-88
2023/12/12 03:27:18;;;;;;;15.27;3.42;;;;;;;8.73;88.65;99358.34;6108128;23;20030;-87
2023/12/12 03:29:45;;;;;;;9.00;2.85;;;;;;;8.73;88.71;99353.91;6060053;23;20463;-88
2023/12/12 03:32:12;;;;;;;9.50;2.83;;;;;;;8.74;89.04;99345.00;6059633;23;20469;-87
2023/12/12 03:34:39;;;;;;;14.82;2.97;;;;;;;8.73;89.23;99355.69;6109091;23;20030;-87
2023/12/12 03:37:06;;;;;;;13.60;2.60;;;;;;;8.66;88.45;99358.06;6036917;23;20082;-87
2023/12/12 03:39:35;;;;;;;12.90;2.70;;;;;;;8.68;88.56;99351.66;6058198;23;20022;-88
2023/12/12 03:42:02;;;;;;;13.80;2.97;;;;;;;8.63;89.17;99345.94;6059668;23;20022;-88
2023/12/12 03:44:29;;;;;;;10.98;2.30;;;;;;;8.63;88.99;99347.75;6109631;23;20450;-88
2023/12/12 03:46:56;;;;;;;13.23;2.50;;;;;;;8.64;89.08;99354.72;6083398;23;20022;-88
2023/12/12 03:49:23;;;;;;;22.05;4.78;;;;;;;8.63;89.30;99353.88;6084157;23;20034;-87
2023/12/12 03:51:50;;;;;;;12.40;2.40;;;;;;;8.63;89.55;99348.59;6037784;23;20019;-87
2023/12/12 03:54:16;;;;;;;17.85;3.25;;;;;;;8.64;89.73;99347.59;6086131;23;20462;-88
2023/12/12 03:56:43;;;;;;;11.20;3.47;;;;;;;8.64;89.94;99344.13;6086176;23;20097;-88
2023/12/12 03:59:10;;;;;;;22.30;4.13;;;;;;;8.71;89.38;99336.50;6085776;23;20475;-88
2023/12/12 04:01:37;;;;;;;15.90;3.03;;;;;;;8.68;89.31;99348.19;6062042;23;20026;-88
2023/12/12 04:04:04;;;;;;;14.52;2.60;;;;;;;8.68;89.32;99348.19;6061628;23;20343;-88
2023/12/12 04:06:30;;;;;;;18.70;2.97;;;;;;;8.64;89.56;99344.13;6086430;23;20089;-88
2023/12/12 04:08:57;;;;;;;11.18;2.63;;;;;;;8.60;89.77;99343.56;6036870;23;20517;-88
2023/12/12 04:11:24;;;;;;;13.60;3.10;;;;;;;8.60;90.03;99350.66;6062482;23;20533;-87
2023/12/12 04:13:51;;;;;;;15.05;2.88;;;;;;;8.59;90.03;99344.53;6085256;23;20030;-88
2023/12/12 04:16:17;;;;;;;10.43;2.63;;;;;;;8.62;90.29;99341.59;6086126;23;20029;-88
2023/12/12 04:18:51;;;;;;;11.95;3.00;;;;;;;8.59;89.96;99344.53;6108651;23;20026;-88
2023/12/12 04:21:18;;;;;;;12.32;2.50;;;;;;;8.62;90.23;99340.78;6107139;23;20086;-88
2023/12/12 04:23:45;;;;;;;12.23;3.00;;;;;;;8.61;90.62;99345.22;6110047;23;20462;-87
2023/12/12 04:26:12;;;;;;;16.05;3.50;;;;;;;8.60;90.84;99333.00;6038031;23;20078;-87
2023/12/12 04:28:39;;;;;;;9.15;2.55;;;;;;;8.59;90.58;99330.47;6037444;23;20320;-87
2023/12/12 04:31:06;;;;;;;13.50;2.85;;;;;;;8.59;90.58;99328.66;6048411;23;20042;-87
2023/12/12 04:33:33;;;;;;;11.60;2.40;;;;;;;8.54;90.79;99322.94;6085587;23;20698;-87
2023/12/12 04:36:02;;;;;;;12.50;2.55;;;;;;;8.51;91.33;99336.44;6085503;23;20749;-87
2023/12/12 04:38:29;;;;;;;12.80;2.50;;;;;;;8.54;91.02;99330.88;6110704;23;20467;-87
2023/12/12 04:40:57;;;;;;;15.70;3.33;;;;;;;8.56;90.91;99336.88;6061279;23;20049;-87
2023/12/12 04:43:24;;;;;;;17.48;4.75;;;;;;;8.57;91.16;99332.41;6085547;23;20519;-87
2023/12/12 04:45:51;;;;;;;11.77;2.58;;;;;;;8.58;90.41;99328.81;6085853;23;20081;-87
2023/12/12 04:48:18;;;;;;;13.02;2.83;;;;;;;8.54;90.46;99340.63;6085237;23;20081;-88
2023/12/12 04:50:45;;;;;;;14.07;2.72;;;;;;;8.52;90.62;99334.63;6084102;23;20407;-88
2023/12/12 04:53:12;;;;;;;12.13;2.80;;;;;;;8.51;90.68;99336.44;6086098;23;20042;-88
2023/12/12 04:55:39;;;;;;;9.32;2.70;;;;;;;8.45;91.08;99329.88;6037517;23;20050;-87
2023/12/12 04:58:06;;;;;;;10.15;2.28;;;;;;;8.50;90.60;99334.78;6061689;23;20320;-87
2023/12/12 05:00:33;;;;;;;12.30;2.40;;;;;;;8.47;91.10;99332.38;6061022;23;20030;-87
2023/12/12 05:03:00;;;;;;;17.33;3.70;;;;;;;8.51;90.90;99331.13;6084671;23;20037;-87
2023/12/12 05:05:27;;;;;;;12.55;2.85;;;;;;;8.54;90.51;99330.03;6085020;23;20719;-87
2023/12/12 05:07:55;;;;;;;17.48;3.50;;;;;;;8.50;91.04;99329.47;6109732;23;20021;-87
2023/12/12 05:10:23;;;;;;;14.73;3.67;;;;;;;8.45;91.35;99329.03;6037387;23;20510;-86
2023/12/12 05:12:50;;;;;;;10.55;2.92;;;;;;;8.43;91.89;99329.16;6084002;23;20029;-87
2023/12/12 05:15:17;;;;;;;17.27;3.15;;;;;;;8.41;92.00;99325.81;6085398;23;20030;-87
2023/12/12 05:17:44;;;;;;;11.98;3.03;;;;;;;8.48;91.50;99323.47;6133430;23;20032;-86
2023/12/12 05:20:13;;;;;;;17.63;4.05;;;;;;;8.50;91.36;99323.31;6055965;23;20032;-86
2023/12/12 05:22:40;;;;;;;11.68;3.17;;;;;;;8.48;91.59;99326.94;6057592;23;20050;-85
2023/12/12 05:25:07;;;;;;;17.05;4.25;;;;;;;8.50;91.40;99318.03;6108393;23;20114;-83
2023/12/12 05:27:34;;;;;;;22.10;4.88;;;;;;;8.55;90.89;99319.31;6038744;23;20022;-84
2023/12/12 05:30:01;;;;;;;19.52;5.22;;;;;;;8.58;91.05;99331.44;6047369;23;20030;-86
2023/12/12 05:32:28;;;;;;;16.10;3.30;;;;;;;8.57;91.30;99322.66;6076072;23;20026;-84
2023/12/12 05:34:55;;;;;;;14.10;4.35;;;;;;;8.59;91.34;99328.66;6052050;23;20085;-84
2023/12/12 05:37:22;;;;;;;22.00;4.25;;;;;;;8.59;91.36;99326.00;6100841;23;20398;-85
2023/12/12 05:39:49;;;;;;;23.83;7.82;;;;;;;8.60;90.85;99325.03;6073220;23;20077;-84
2023/12/12 05:42:16;;;;;;;23.25;6.38;;;;;;;8.58;91.21;99328.81;6073714;23;20386;-84
2023/12/12 05:44:43;;;;;;;21.38;5.80;;;;;;;8.59;91.42;99333.09;6051018;23;20455;-85
2023/12/12 05:47:10;;;;;;;16.15;3.90;;;;;;;8.57;91.64;99324.47;6099919;23;20028;-85
2023/12/12 05:49:37;;;;;;;18.90;4.18;;;;;;;8.54;92.04;99317.63;6074469;23;20023;-86
2023/12/12 05:52:04;;;;;;;18.60;4.60;;;;;;;8.55;92.24;99319.31;6027029;23;20496;-86
2023/12/12 05:54:31;;;;;;;17.52;4.65;;;;;;;8.52;92.14;99314.28;6099762;23;20056;-84
2023/12/12 05:56:59;;;;;;;20.83;3.53;;;;;;;8.54;91.83;99314.16;6051028;23;20113;-84
2023/12/12 05:59:26;;;;;;;20.73;5.18;;;;;;;8.51;91.50;99306.50;6099462;23;20034;-84
2023/12/12 06:01:53;;;;;;;19.92;5.00;;;;;;;8.53;91.30;99296.63;6049108;23;20022;-83
2023/12/12 06:04:19;;;;;;;13.20;3.35;;;;;;;8.52;91.15;99300.22;6027670;23;20024;-83
2023/12/12 06:06:46;;;;;;;15.02;3.30;;;;;;;8.54;91.21;99293.81;6027453;23;20014;-83
2023/12/12 06:09:14;;;;;;;18.60;3.90;;;;;;;8.51;91.54;99293.25;6074866;23;20024;-85
2023/12/12 06:11:41;;;;;;;18.92;3.80;;;;;;;8.49;91.28;99301.31;6097323;23;20033;-83
2023/12/12 06:14:08;;;;;;;17.27;3.75;;;;;;;8.46;91.26;99293.66;6075791;23;20332;-85
2023/12/12 06:16:35;;;;;;;20.27;4.10;;;;;;;8.43;91.05;99291.28;6099678;23;20034;-83
2023/12/12 06:19:04;;;;;;;17.90;4.15;;;;;;;8.44;91.13;99283.19;6025837;23;20030;-87
2023/12/12 06:21:32;;;;;;;20.08;3.92;;;;;;;8.43;90.84;99296.59;6073111;23;20565;-85
2023/12/12 06:24:01;;;;;;;17.23;4.05;;;;;;;8.40;90.88;99299.50;6051319;23;20026;-83
2023/12/12 06:26:29;;;;;;;13.50;3.78;;;;;;;8.38;90.95;99301.41;6051243;23;20034;-83
2023/12/12 06:28:56;;;;;;;17.08;3.83;;;;;;;8.35;90.99;99288.47;6073840;23;20018;-83
2023/12/12 06:31:23;;;;;;;16.40;3.45;;;;;;;8.36;90.90;99287.47;6049439;23;20077;-84
2023/12/12 06:33:51;;;;;;;23.52;5.00;;;;;;;8.33;91.57;99287.75;6067781;23;20019;-84
2023/12/12 06:36:18;;;;;;;25.15;4.28;;;;;;;8.33;91.61;99277.19;6089447;23;20037;-84
2023/12/12 06:38:45;;;;;;;22.08;4.45;;;;;;;8.34;91.67;99260.31;6066564;23;20030;-84
2023/12/12 06:41:12;;;;;;;26.88;5.07;;;;;;;8.38;91.23;99261.72;6096185;23;20030;-82
2023/12/12 06:43:42;;;;;;;18.25;4.60;;;;;;;8.40;91.37;99265.94;6096897;23;20038;-80
2023/12/12 06:46:10;;;;;;;18.10;4.88;;;;;;;8.37;91.33;99260.91;6074112;23;20030;-80
2023/12/12 06:48:38;;;;;;;8.55;3.10;;;;;;;8.40;91.20;99255.38;6072831;23;20027;-80
2023/12/12 06:51:06;;;;;;;15.95;3.72;;;;;;;8.41;91.44;99262.31;6095290;23;20450;-81
2023/12/12 06:53:33;;;;;;;16.00;3.85;;;;;;;8.43;91.41;99252.44;6075282;23;20656;-82
2023/12/12 06:56:00;;;;;;;19.73;5.10;;;;;;;8.42;91.57;99261.38;6050441;23;20327;-81
2023/12/12 06:58:27;;;;;;;23.13;4.70;;;;;;;8.44;91.83;99250.63;6073959;23;20046;-82
2023/12/12 07:00:54;;;;;;;24.58;4.43;;;;;;;8.47;91.60;99247.69;6094796;23;20026;-81
2023/12/12 07:03:24;;;;;;;12.77;3.58;;;;;;;8.46;91.39;99240.75;6097675;23;20033;-82
2023/12/12 07:05:51;;;;;;;29.13;4.93;;;;;;;8.46;91.50;99261.91;6050958;23;20029;-82
2023/12/12 07:08:19;;;;;;;20.30;5.53;;;;;;;8.43;91.58;99268.31;6049077;23;20089;-83
2023/12/12 07:10:46;;;;;;;16.13;4.35;;;;;;;8.36;91.95;99264.50;6023464;23;20029;-81
2023/12/12 07:13:14;;;;;;;18.17;6.32;;;;;;;8.37;92.13;99265.34;6048390;23;20053;-82
2023/12/12 07:15:40;;;;;;;24.52;5.25;;;;;;;8.35;92.40;99262.84;6073123;23;20049;-81
2023/12/12 07:18:11;;;;;;;22.02;4.53;;;;;;;8.33;91.94;99258.66;6026345;23;20025;-81
2023/12/12 07:20:41;;;;;;;23.95;4.85;;;;;;;8.27;92.26;99263.50;6045899;23;20396;-81
2023/12/12 07:23:09;;;;;;;15.70;4.25;;;;;;;8.24;92.44;99262.94;6023501;23;20026;-81
2023/12/12 07:25:36;;;;;;;17.65;4.82;;;;;;;8.25;92.67;99273.38;6074386;23;20493;-82
2023/12/12 07:28:03;;;;;;;18.63;4.70;;;;;;;8.24;92.76;99266.44;6035850;23;20026;-81
2023/12/12 07:30:30;;;;;;;18.10;4.55;;;;;;;8.23;92.79;99269.22;6070838;23;20037;-80
2023/12/12 07:32:57;;;;;;;17.27;6.18;;;;;;;8.26;92.55;99277.69;6073247;23;20840;-82
2023/12/12 07:35:25;;;;;;;14.57;4.20;;;;;;;8.25;92.18;99272.56;6076170;23;20434;-82
2023/12/12 07:37:52;;;;;;;17.83;5.63;;;;;;;8.25;92.19;99269.91;6100793;23;20093;-82
2023/12/12 07:40:18;;;;;;;19.88;5.50;;;;;;;8.25;91.81;99276.03;6073384;23;20026;-82
2023/12/12 07:42:45;;;;;;;7.85;4.28;;;;;;;8.26;91.76;99272.41;6075877;23;20022;-82
2023/12/12 07:45:12;;;;;;;14.05;4.47;;;;;;;8.23;91.51;99272.69;6075413;23;20081;-81
2023/12/12 07:47:39;;;;;;;15.70;4.13;;;;;;;8.22;91.60;99272.84;6099941;23;20022;-80
2023/12/12 07:50:10;;;;;;;17.73;4.80;;;;;;;8.18;91.99;99260.84;6073232;23;20022;-83
2023/12/12 07:52:37;;;;;;;22.58;5.47;;;;;;;8.24;92.17;99262.94;6099567;23;20351;-82
2023/12/12 07:55:05;;;;;;;18.38;3.80;;;;;;;8.24;92.17;99261.16;6027810;23;20093;-81
2023/12/12 07:57:32;;;;;;;21.90;5.22;;;;;;;8.25;92.55;99249.59;6075052;23;20022;-82
2023/12/12 08:00:00;;;;;;;17.65;4.43;;;;;;;8.25;92.76;99251.41;6072618;23;20078;-81
2023/12/12 08:02:29;;;;;;;27.48;5.15;;;;;;;8.29;92.91;99258.06;6096034;23;20034;-82
2023/12/12 08:04:56;;;;;;;30.83;5.05;;;;;;;8.29;92.96;99246.66;6086497;23;20022;-82
2023/12/12 08:07:23;;;;;;;20.50;5.50;;;;;;;8.31;92.42;99248.19;6099241;23;20026;-81
2023/12/12 08:09:50;;;;;;;19.45;5.13;;;;;;;8.34;92.45;99244.44;6049440;23;20399;-82
2023/12/12 08:12:17;;;;;;;22.05;5.38;;;;;;;8.31;92.22;99248.19;6075145;23;20101;-82
2023/12/12 08:14:44;;;;;;;18.92;5.85;;;;;;;8.33;92.23;99246.25;6074103;23;20034;-79
2023/12/12 08:17:14;;;;;;;20.38;5.70;;;;;;;8.34;92.34;99249.75;6075261;23;20077;-82
2023/12/12 08:19:41;;;;;;;17.42;5.03;;;;;;;8.36;92.18;99250.44;6027544;23;20029;-81
2023/12/12 08:22:09;;;;;;;32.20;6.55;;;;;;;8.36;92.31;99245.97;6025650;23;20117;-82
2023/12/12 08:24:35;;;;;;;22.95;5.90;;;;;;;8.35;92.31;99241.69;6075581;23;20030;-81
2023/12/12 08:27:02;;;;;;;22.77;6.32;;;;;;;8.38;92.23;99259.91;6075121;23;25153;-82
2023/12/12 08:29:29;;;;;;;22.63;5.68;;;;;;;8.40;92.42;99254.53;6048072;23;20026;-82
2023/12/12 08:31:58;;;;;;;25.88;5.53;;;;;;;8.39;92.19;99229.00;6073250;23;20026;-87
2023/12/12 08:34:25;;;;;;;22.70;5.15;;;;;;;8.40;91.98;99213.03;6076408;23;20432;-86
2023/12/12 08:36:52;;;;;;;24.48;5.90;;;;;;;8.40;92.40;99210.38;6076389;23;20339;-87
2023/12/12 08:39:19;;;;;;;17.80;5.85;;;;;;;8.39;92.91;99203.41;6099570;23;20121;-87
2023/12/12 08:41:46;;;;;;;14.80;5.57;;;;;;;8.40;92.75;99186.56;6051317;23;20030;-85
2023/12/12 08:44:12;;;;;;;16.23;4.80;;;;;;;8.44;92.46;99163.31;6076499;23;20026;-85
2023/12/12 08:46:43;;;;;;;18.85;5.70;;;;;;;8.45;92.79;99178.22;6078956;23;20046;-91
2023/12/12 08:49:10;;;;;;;25.15;5.10;;;;;;;8.39;93.03;99176.94;6059234;23;20331;-94
2023/12/12 08:51:39;;;;;;;19.33;5.95;;;;;;;8.43;93.04;99182.81;6085100;23;20030;-94
2023/12/12 08:54:06;;;;;;;19.45;7.03;;;;;;;8.46;93.64;99170.13;6037895;23;20018;-94
2023/12/12 08:56:33;;;;;;;23.52;6.05;;;;;;;8.45;93.78;99171.13;6060330;23;20032;-94
2023/12/12 08:59:00;;;;;;;24.42;5.90;;;;;;;8.46;93.63;99164.84;6107678;23;20030;-95
2023/12/12 09:01:27;;;;;;;19.70;5.10;;;;;;;8.49;93.59;99179.59;6035870;23;20098;-94
2023/12/12 09:03:56;;;;;;;25.50;6.55;;;;;;;8.47;93.33;99176.25;6092877;23;20473;-90
2023/12/12 09:06:24;;;;;;;19.67;5.25;;;;;;;8.49;93.35;99171.66;6104973;23;20026;-94
2023/12/12 09:08:50;;;;;;;12.00;5.50;;;;;;;8.51;93.03;99169.72;6079021;23;20097;-93
2023/12/12 09:11:17;;;;;;;21.33;6.35;;;;;;;8.49;92.99;99176.97;6052820;23;20022;-92
2023/12/12 09:13:44;;;;;;;20.55;5.72;;;;;;;8.48;93.13;99167.38;6076337;23;20402;-87
2023/12/12 09:16:11;;;;;;;22.73;6.70;;;;;;;8.52;92.88;99166.09;6053459;23;20022;-87
2023/12/12 09:18:38;;;;;;;21.13;6.70;;;;;;;8.53;93.09;99165.13;6051800;23;20046;-86
2023/12/12 09:21:06;;;;;;;26.33;6.30;;;;;;;8.54;92.98;99158.88;6073602;23;20037;-86
2023/12/12 09:23:33;;;;;;;25.50;6.70;;;;;;;8.52;93.13;99154.69;6076802;23;20363;-86
2023/12/12 09:26:00;;;;;;;26.80;6.13;;;;;;;8.55;92.97;99155.25;6100594;23;20022;-88
2023/12/12 09:28:27;;;;;;;20.15;6.53;;;;;;;8.55;93.17;99151.75;6052603;23;20034;-86
2023/12/12 09:30:54;;;;;;;25.33;8.20;;;;;;;8.57;93.04;99152.44;6050922;23;20358;-87
2023/12/12 09:33:21;;;;;;;30.25;7.00;;;;;;;8.55;93.08;99163.19;6084710;23;20029;-87
2023/12/12 09:35:48;;;;;;;20.85;7.13;;;;;;;8.59;93.10;99158.44;6091268;23;20026;-85
2023/12/12 09:38:15;;;;;;;30.30;6.20;;;;;;;8.61;93.05;99153.84;6077099;23;20022;-86
2023/12/12 09:40:42;;;;;;;21.75;5.93;;;;;;;8.60;92.76;99155.69;6067652;23;20447;-86
2023/12/12 09:43:11;;;;;;;24.25;6.10;;;;;;;8.60;92.67;99142.44;6076102;23;20029;-86
2023/12/12 09:45:42;;;;;;;19.90;6.18;;;;;;;8.62;92.99;99137.81;6125098;23;20026;-87
2023/12/12 09:48:10;;;;;;;23.52;6.65;;;;;;;8.65;92.83;99134.91;6053333;23;20097;-87
2023/12/12 09:50:36;;;;;;;24.67;7.50;;;;;;;8.65;92.65;99120.81;6098943;23;20086;-86
2023/12/12 09:53:03;;;;;;;24.65;6.13;;;;;;;8.69;92.86;99119.56;6097656;23;20751;-82
2023/12/12 09:55:30;;;;;;;27.00;6.65;;;;;;;8.66;92.91;99112.75;6025972;23;20028;-81
2023/12/12 09:57:57;;;;;;;25.90;6.72;;;;;;;8.68;93.10;99107.34;6099238;23;20387;-81
2023/12/12 10:00:24;;;;;;;24.33;6.95;;;;;;;8.70;92.98;99102.72;6096638;23;20030;-81
2023/12/12 10:02:55;;;;;;;21.15;7.15;;;;;;;8.73;93.15;99094.50;6121946;23;20033;-81
2023/12/12 10:05:22;;;;;;;25.83;7.78;;;;;;;8.73;93.12;99093.66;6099101;23;20511;-81
2023/12/12 10:07:50;;;;;;;23.13;6.85;;;;;;;8.73;93.25;99097.16;6076351;23;20028;-86
2023/12/12 10:10:30;;;;;;;32.53;8.77;;;;;;;8.71;93.48;99079.75;6073402;23;20026;-86
2023/12/12 10:12:57;;;;;;;21.88;7.47;;;;;;;8.75;93.18;99070.53;6075695;23;20046;-86
2023/12/12 10:15:27;;;;;;;65.40;11.18;;;;;;;8.76;93.13;99067.75;6100440;23;20505;-87
2023/12/12 10:17:58;;;;;;;248.45;32.58;;;;;;;8.79;92.70;99061.34;6099792;23;20026;-86
2023/12/12 10:20:26;;;;;;;38.97;9.65;;;;;;;8.82;92.81;99066.34;6073104;23;20101;-87
2023/12/12 10:23:04;;;;;;;25.67;7.40;;;;;;;8.77;92.88;99064.09;6075805;23;20542;-86
2023/12/12 10:25:32;;;;;;;24.50;6.60;;;;;;;8.85;92.80;99063.41;6099341;23;20030;-86
2023/12/12 10:27:59;;;;;;;21.17;7.78;;;;;;;8.88;92.88;99066.59;6123677;23;20030;-87
2023/12/12 10:30:26;;;;;;;19.92;6.65;;;;;;;8.90;92.87;99062.00;6074132;23;20057;-87
2023/12/12 10:32:54;;;;;;;22.08;6.97;;;;;;;8.94;92.85;99065.19;6075466;23;20077;-87
2023/12/12 10:35:22;;;;;;;18.23;7.28;;;;;;;8.95;92.96;99058.91;6100228;23;20825;-88
2023/12/12 10:37:50;;;;;;;22.33;7.78;;;;;;;8.95;93.02;99053.59;6077737;23;20386;-87
2023/12/12 10:40:21;;;;;;;20.73;6.30;;;;;;;8.96;92.63;99046.53;6073552;23;20045;-86
2023/12/12 10:42:49;;;;;;;27.40;7.32;;;;;;;8.97;92.88;99037.59;6051440;23;20057;-86
2023/12/12 10:45:16;;;;;;;21.00;6.47;;;;;;;8.99;93.05;99025.88;6052116;23;20085;-88
2023/12/12 10:47:47;;;;;;;21.42;6.25;;;;;;;9.01;93.04;99023.91;6075491;23;20609;-86
2023/12/12 10:50:16;;;;;;;16.17;5.90;;;;;;;9.04;93.33;99010.38;6096894;23;20026;-86
2023/12/12 10:52:44;;;;;;;24.73;6.38;;;;;;;9.05;93.21;98996.16;6074189;23;20033;-87
2023/12/12 10:55:13;;;;;;;20.67;6.05;;;;;;;9.07;93.13;98977.47;6076197;23;20586;-85
2023/12/12 10:57:47;;;;;;;21.38;5.50;;;;;;;9.06;93.05;98963.41;6052916;23;20097;-88
2023/12/12 11:00:15;;;;;;;17.48;6.15;;;;;;;9.08;92.95;98961.44;6124506;23;20022;-87
2023/12/12 11:02:45;;;;;;;19.83;7.07;;;;;;;9.08;93.12;98953.50;6057867;23;20473;-88
2023/12/12 11:05:14;;;;;;;17.70;6.88;;;;;;;9.11;93.40;98955.03;6080822;23;20109;-89
2023/12/12 11:07:43;;;;;;;22.88;8.25;;;;;;;9.12;93.40;98960.16;6055975;23;20022;-87
2023/12/12 11:10:13;;;;;;;21.23;8.05;;;;;;;9.12;93.71;98968.09;6054668;23;20121;-88
2023/12/12 11:12:48;;;;;;;28.67;8.23;;;;;;;9.08;93.86;98960.59;6082465;23;20621;-88
2023/12/12 11:15:16;;;;;;;27.35;8.30;;;;;;;9.10;93.71;98961.28;6082398;23;20022;-87
2023/12/12 11:17:43;;;;;;;26.45;10.38;;;;;;;9.07;93.96;98957.13;6107542;23;20411;-87
2023/12/12 11:20:15;;;;;;;22.48;7.68;;;;;;;9.03;93.76;98952.25;6129906;23;20030;-87
2023/12/12 11:22:44;;;;;;;27.48;8.27;;;;;;;9.05;93.96;98963.53;6080077;23;20327;-88
2023/12/12 11:25:17;;;;;;;19.33;6.97;;;;;;;9.03;94.44;98957.56;6105371;23;20022;-88
2023/12/12 11:27:46;;;;;;;;;;;;;;;8.93;95.77;98949.69;6105853;23;20343;-87
2023/12/12 11:30:13;;;;;;;26.17;7.95;;;;;;;8.98;95.01;98944.78;6028842;23;20298;-81
2023/12/12 11:32:42;;;;;;;19.67;7.30;;;;;;;9.01;95.27;98941.00;6075987;23;20023;-84
2023/12/12 11:35:26;;;;;;;21.25;8.35;;;;;;;8.97;96.13;98929.03;6101350;23;20328;-83